createdAt,value
2023-04-14T00:00:54.462Z,59.64
2023-04-14T00:01:51.466Z,59.26
2023-04-14T00:02:48.283Z,60.04
2023-04-14T00:03:45.750Z,59.78
2023-04-14T00:04:42.857Z,60.36
2023-04-14T00:05:39.662Z,60.35
2023-04-14T00:06:36.496Z,60.17
2023-04-14T00:07:33.279Z,60.70
2023-04-14T00:08:30.107Z,61.10
2023-04-14T00:09:27.048Z,60.59
2023-04-14T00:10:24.367Z,60.75
2023-04-14T00:11:21.247Z,60.39
2023-04-14T00:12:18.179Z,61.51
2023-04-14T00:13:14.909Z,61.71
2023-04-14T00:14:11.626Z,61.66
2023-04-14T00:15:08.925Z,61.74
2023-04-14T00:16:07.163Z,62.20
2023-04-14T00:17:03.994Z,64.44
2023-04-14T00:18:00.972Z,65.52
2023-04-14T00:18:57.888Z,65.38
2023-04-14T00:19:54.867Z,64.97
2023-04-14T00:20:51.619Z,65.24
2023-04-14T00:21:48.350Z,65.46
2023-04-14T00:22:45.158Z,67.35
2023-04-14T00:23:42.170Z,66.40
2023-04-14T00:24:43.459Z,66.01
2023-04-14T00:25:40.360Z,65.35
2023-04-14T00:26:37.152Z,64.91
2023-04-14T00:27:33.921Z,65.86
2023-04-14T00:28:30.694Z,66.21
2023-04-14T00:29:27.440Z,66.12
2023-04-14T00:30:24.242Z,66.32
2023-04-14T00:31:21.021Z,66.24
2023-04-14T00:32:17.984Z,66.18
2023-04-14T00:33:14.838Z,66.83
2023-04-14T00:34:11.600Z,66.98
2023-04-14T00:35:08.681Z,67.57
2023-04-14T00:36:05.690Z,67.56
2023-04-14T00:37:02.410Z,67.23
2023-04-14T00:37:59.251Z,68.12
2023-04-14T00:38:56.156Z,69.64
2023-04-14T00:39:52.931Z,69.96
2023-04-14T00:40:49.642Z,69.39
2023-04-14T00:41:46.343Z,68.44
2023-04-14T00:42:47.136Z,68.80
2023-04-14T00:43:44.003Z,68.91
2023-04-14T00:44:40.794Z,69.31
2023-04-14T00:45:47.742Z,70.32
2023-04-14T00:46:44.615Z,69.85
2023-04-14T00:47:46.983Z,70.18
2023-04-14T00:48:44.209Z,70.50
2023-04-14T00:49:42.064Z,70.21
2023-04-14T00:50:39.074Z,68.96
2023-04-14T00:51:36.747Z,69.47
2023-04-14T00:52:33.603Z,68.98
2023-04-14T00:53:32.217Z,68.99
2023-04-14T00:54:31.244Z,69.23
2023-04-14T00:55:28.307Z,69.56
2023-04-14T00:56:29.813Z,72.05
2023-04-14T00:57:27.277Z,72.71
2023-04-14T00:58:25.389Z,72.86
2023-04-14T00:59:22.400Z,72.09
2023-04-14T01:00:19.762Z,71.35
2023-04-14T01:01:16.751Z,69.95
2023-04-14T01:02:13.717Z,70.29
2023-04-14T01:03:10.997Z,71.07
2023-04-14T01:04:08.750Z,70.88
2023-04-14T01:05:06.757Z,70.11
2023-04-14T01:06:03.697Z,70.65
2023-04-14T01:07:00.591Z,71.29
2023-04-14T01:07:58.141Z,70.96
2023-04-14T01:08:56.520Z,71.93
2023-04-14T01:09:57.254Z,72.32
2023-04-14T01:11:22.534Z,73.05
2023-04-14T01:12:54.581Z,73.14
2023-04-14T01:14:06.501Z,72.57
2023-04-14T01:15:06.517Z,71.10
2023-04-14T01:16:19.179Z,74.02
2023-04-14T01:17:29.055Z,76.22
2023-04-14T01:18:47.276Z,78.19
2023-04-14T01:19:56.069Z,77.64
2023-04-14T01:20:59.308Z,76.57
2023-04-14T01:22:03.864Z,76.10
2023-04-14T01:23:08.519Z,75.09
2023-04-14T01:24:43.340Z,75.00
2023-04-14T01:25:42.767Z,74.77
2023-04-14T01:26:41.547Z,76.66
2023-04-14T01:27:46.211Z,77.40
2023-04-14T01:29:01.620Z,79.66
2023-04-14T01:30:35.217Z,81.56
2023-04-14T01:31:36.680Z,81.85
2023-04-14T01:32:39.655Z,81.81
2023-04-14T01:33:40.473Z,81.18
2023-04-14T01:34:43.045Z,81.72
2023-04-14T01:35:51.178Z,78.24
2023-04-14T01:37:14.989Z,78.24
2023-04-14T01:38:22.400Z,77.68
2023-04-14T01:39:24.804Z,78.28
2023-04-14T01:40:26.061Z,78.73
2023-04-14T01:41:25.846Z,78.79
2023-04-14T01:42:29.389Z,78.16
2023-04-14T01:43:30.817Z,79.03
2023-04-14T01:44:30.822Z,78.48
2023-04-14T01:45:34.256Z,79.26
2023-04-14T01:46:34.737Z,79.41
2023-04-14T01:47:33.284Z,78.36
2023-04-14T01:48:32.816Z,77.65
2023-04-14T01:49:33.763Z,77.39
2023-04-14T01:50:33.347Z,78.40
2023-04-14T01:51:33.828Z,79.60
2023-04-14T01:52:32.551Z,80.73
2023-04-14T01:53:32.867Z,79.53
2023-04-14T01:54:32.703Z,77.51
2023-04-14T01:55:33.396Z,76.34
2023-04-14T01:56:33.962Z,76.38
2023-04-14T01:57:33.625Z,76.90
2023-04-14T01:58:32.437Z,75.96
2023-04-14T01:59:32.233Z,75.46
2023-04-14T02:00:30.542Z,75.30
2023-04-14T02:01:29.634Z,75.40
2023-04-14T02:02:29.081Z,75.11
2023-04-14T02:03:27.753Z,76.09
2023-04-14T02:04:29.082Z,76.09
2023-04-14T02:05:28.182Z,76.00
2023-04-14T02:06:27.638Z,76.22
2023-04-14T02:07:26.636Z,76.20
2023-04-14T02:08:24.383Z,75.18
2023-04-14T02:09:23.290Z,74.54
2023-04-14T02:10:21.793Z,76.11
2023-04-14T02:11:21.441Z,76.33
2023-04-14T02:12:20.660Z,76.30
2023-04-14T02:13:21.562Z,74.63
2023-04-14T02:14:21.606Z,73.76
2023-04-14T02:15:22.329Z,73.00
2023-04-14T02:16:20.666Z,74.16
2023-04-14T02:17:21.566Z,76.33
2023-04-14T02:18:22.252Z,75.84
2023-04-14T02:19:21.821Z,75.09
2023-04-14T02:20:21.769Z,74.78
2023-04-14T02:21:24.755Z,74.05
2023-04-14T02:22:21.632Z,75.29
2023-04-14T02:23:18.991Z,75.77
2023-04-14T02:24:15.905Z,75.74
2023-04-14T02:25:13.127Z,75.70
2023-04-14T02:26:21.781Z,74.31
2023-04-14T02:27:38.665Z,73.16
2023-04-14T02:28:43.245Z,72.87
2023-04-14T02:29:45.318Z,72.73
2023-04-14T02:30:48.049Z,72.70
2023-04-14T02:31:52.956Z,74.34
2023-04-14T02:32:56.819Z,75.08
2023-04-14T02:33:57.890Z,77.14
2023-04-14T02:35:03.570Z,78.08
2023-04-14T02:36:16.838Z,78.92
2023-04-14T02:37:25.545Z,79.58
2023-04-14T02:38:29.841Z,80.88
2023-04-14T02:39:32.220Z,78.38
2023-04-14T02:40:35.382Z,78.92
2023-04-14T02:41:34.054Z,78.88
2023-04-14T02:42:36.188Z,80.22
2023-04-14T02:43:42.580Z,78.79
2023-04-14T02:44:48.714Z,77.37
2023-04-14T02:45:50.777Z,78.64
2023-04-14T02:47:07.920Z,80.08
2023-04-14T02:48:14.325Z,79.75
2023-04-14T02:49:16.548Z,79.41
2023-04-14T02:50:18.004Z,80.13
2023-04-14T02:51:18.039Z,80.18
2023-04-14T02:52:19.228Z,81.97
2023-04-14T02:53:24.200Z,82.78
2023-04-14T02:54:23.476Z,83.50
2023-04-14T02:55:23.216Z,82.59
2023-04-14T02:56:21.799Z,81.12
2023-04-14T02:57:19.352Z,81.76
2023-04-14T02:58:16.967Z,81.40
2023-04-14T02:59:14.016Z,82.55
2023-04-14T03:00:13.394Z,82.60
2023-04-14T03:01:11.439Z,80.72
2023-04-14T03:02:10.487Z,79.68
2023-04-14T03:03:08.149Z,81.41
2023-04-14T03:04:06.287Z,82.22
2023-04-14T03:05:05.119Z,82.25
2023-04-14T03:06:02.643Z,81.95
2023-04-14T03:07:01.938Z,81.23
2023-04-14T03:08:04.217Z,79.29
2023-04-14T03:09:03.686Z,77.09
2023-04-14T03:10:03.838Z,75.56
2023-04-14T03:11:02.889Z,77.54
2023-04-14T03:12:03.015Z,79.58
2023-04-14T03:13:02.316Z,78.51
2023-04-14T03:14:00.461Z,79.07
2023-04-14T03:14:59.280Z,77.96
2023-04-14T03:15:58.540Z,76.65
2023-04-14T03:16:57.086Z,78.40
2023-04-14T03:17:57.417Z,80.16
2023-04-14T03:18:55.555Z,79.75
2023-04-14T03:19:54.030Z,79.39
2023-04-14T03:20:53.528Z,81.58
2023-04-14T03:21:52.299Z,83.27
2023-04-14T03:23:05.380Z,83.04
2023-04-14T03:24:03.285Z,83.14
2023-04-14T03:25:00.701Z,84.73
2023-04-14T03:26:00.311Z,84.92
2023-04-14T03:27:05.718Z,84.37
2023-04-14T03:28:09.852Z,83.46
2023-04-14T03:29:10.602Z,84.10
2023-04-14T03:30:10.183Z,83.50
2023-04-14T03:31:11.631Z,84.38
2023-04-14T03:32:10.394Z,83.28
2023-04-14T03:33:10.120Z,82.15
2023-04-14T03:34:09.827Z,81.68
2023-04-14T03:35:08.337Z,82.03
2023-04-14T03:36:07.614Z,81.35
2023-04-14T03:37:07.809Z,82.37
2023-04-14T03:38:09.153Z,82.93
2023-04-14T03:39:08.168Z,82.13
2023-04-14T03:40:11.310Z,82.74
2023-04-14T03:41:10.140Z,82.12
2023-04-14T03:42:10.881Z,81.97
2023-04-14T03:43:12.301Z,81.32
2023-04-14T03:44:15.831Z,81.77
2023-04-14T03:45:12.970Z,81.22
2023-04-14T03:46:11.051Z,81.13
2023-04-14T03:47:09.252Z,81.54
2023-04-14T03:48:12.584Z,81.88
2023-04-14T03:49:15.290Z,82.09
2023-04-14T03:50:15.620Z,80.90
2023-04-14T03:51:15.979Z,80.43
2023-04-14T03:52:20.909Z,80.27
2023-04-14T03:53:20.003Z,79.81
2023-04-14T03:54:19.691Z,80.49
2023-04-14T03:55:19.011Z,79.71
2023-04-14T03:56:17.829Z,80.60
2023-04-14T03:57:17.814Z,81.19
2023-04-14T03:58:17.265Z,81.92
2023-04-14T03:59:18.680Z,81.46
2023-04-14T04:00:17.742Z,82.97
2023-04-14T04:01:16.527Z,83.81
2023-04-14T04:02:16.179Z,84.05
2023-04-14T04:03:15.675Z,84.36
2023-04-14T04:04:13.573Z,84.71
2023-04-14T04:05:11.593Z,84.99
2023-04-14T04:06:08.504Z,84.50
2023-04-14T04:07:10.528Z,86.71
2023-04-14T04:08:09.510Z,86.16
2023-04-14T04:09:09.476Z,86.14
2023-04-14T04:10:08.436Z,85.26
2023-04-14T04:11:08.683Z,84.10
2023-04-14T04:12:07.140Z,84.23
2023-04-14T04:13:11.265Z,84.09
2023-04-14T04:14:09.742Z,84.83
2023-04-14T04:15:07.598Z,85.46
2023-04-14T04:16:07.732Z,86.69
2023-04-14T04:17:08.600Z,86.83
2023-04-14T04:18:07.852Z,87.44
2023-04-14T04:19:08.837Z,88.79
2023-04-14T04:20:10.081Z,88.92
2023-04-14T04:21:10.687Z,88.49
2023-04-14T04:22:10.700Z,87.21
2023-04-14T04:23:10.097Z,87.29
2023-04-14T04:24:08.791Z,86.53
2023-04-14T04:25:07.498Z,87.34
2023-04-14T04:26:04.401Z,88.66
2023-04-14T04:27:01.558Z,89.17
2023-04-14T04:27:59.804Z,89.49
2023-04-14T04:29:00.937Z,89.54
2023-04-14T04:29:58.646Z,90.07
2023-04-14T04:30:59.253Z,88.80
2023-04-14T04:31:57.064Z,89.37
2023-04-14T04:32:54.142Z,90.91
2023-04-14T04:33:51.824Z,91.68
2023-04-14T04:34:50.951Z,90.76
2023-04-14T04:35:48.161Z,90.89
2023-04-14T04:36:45.508Z,91.44
2023-04-14T04:37:43.914Z,91.89
2023-04-14T04:38:41.165Z,91.53
2023-04-14T04:39:38.048Z,91.22
2023-04-14T04:40:38.630Z,91.56
2023-04-14T04:41:35.500Z,91.11
2023-04-14T04:42:32.292Z,91.39
2023-04-14T04:43:29.073Z,92.03
2023-04-14T04:44:25.812Z,93.07
2023-04-14T04:45:59.142Z,92.67
2023-04-14T04:46:56.461Z,93.96
2023-04-14T04:47:53.280Z,93.40
2023-04-14T04:48:54.225Z,92.63
2023-04-14T04:49:50.923Z,92.52
2023-04-14T04:50:47.826Z,92.16
2023-04-14T04:51:44.739Z,92.03
2023-04-14T04:52:43.978Z,92.51
2023-04-14T04:53:40.841Z,91.38
2023-04-14T04:54:37.586Z,89.42
2023-04-14T04:55:34.357Z,88.22
2023-04-14T04:56:31.674Z,87.36
2023-04-14T04:57:28.499Z,86.94
2023-04-14T04:58:25.280Z,87.11
2023-04-14T04:59:22.373Z,85.94
2023-04-14T05:00:19.560Z,86.71
2023-04-14T05:01:16.839Z,87.35
2023-04-14T05:02:13.644Z,89.57
2023-04-14T05:03:10.721Z,90.58
2023-04-14T05:04:07.587Z,91.17
2023-04-14T05:05:04.998Z,90.92
2023-04-14T05:06:01.820Z,89.45
2023-04-14T05:06:58.708Z,89.70
2023-04-14T05:07:55.515Z,87.55
2023-04-14T05:08:53.609Z,85.93
2023-04-14T05:09:52.905Z,86.33
2023-04-14T05:10:49.710Z,85.75
2023-04-14T05:11:46.450Z,84.92
2023-04-14T05:12:43.267Z,86.14
2023-04-14T05:13:40.200Z,85.65
2023-04-14T05:14:37.094Z,86.17
2023-04-14T05:15:33.852Z,86.69
2023-04-14T05:16:31.551Z,85.46
2023-04-14T05:17:28.302Z,84.42
2023-04-14T05:18:25.078Z,83.64
2023-04-14T05:19:23.871Z,83.39
2023-04-14T05:20:20.706Z,81.74
2023-04-14T05:21:17.599Z,82.16
2023-04-14T05:22:14.312Z,82.40
2023-04-14T05:23:11.037Z,80.69
2023-04-14T05:24:09.526Z,80.44
2023-04-14T05:25:06.566Z,79.87
2023-04-14T05:26:26.830Z,80.24
2023-04-14T05:27:22.078Z,82.10
2023-04-14T05:28:18.882Z,81.73
2023-04-14T05:29:15.594Z,81.48
2023-04-14T05:30:12.961Z,81.08
2023-04-14T05:31:09.870Z,80.60
2023-04-14T05:32:06.677Z,80.52
2023-04-14T05:33:06.211Z,80.05
2023-04-14T05:34:03.246Z,79.76
2023-04-14T05:35:00.344Z,79.72
2023-04-14T05:35:57.136Z,79.18
2023-04-14T05:36:53.863Z,78.68
2023-04-14T05:37:50.750Z,78.62
2023-04-14T05:38:47.603Z,79.00
2023-04-14T05:39:45.023Z,79.43
2023-04-14T05:40:41.994Z,79.71
2023-04-14T05:41:38.813Z,78.92
2023-04-14T05:42:35.804Z,79.63
2023-04-14T05:43:32.910Z,78.39
2023-04-14T05:44:29.831Z,77.85
2023-04-14T05:45:26.805Z,76.57
2023-04-14T05:46:23.633Z,75.87
2023-04-14T05:47:20.447Z,74.75
2023-04-14T05:48:18.029Z,74.27
2023-04-14T05:49:15.001Z,75.29
2023-04-14T05:50:11.939Z,75.61
2023-04-14T05:51:08.704Z,74.92
2023-04-14T05:52:05.520Z,74.70
2023-04-14T05:53:02.523Z,74.51
2023-04-14T05:53:59.358Z,73.43
2023-04-14T05:54:56.360Z,73.19
2023-04-14T05:55:53.477Z,74.19
2023-04-14T05:56:50.256Z,74.92
2023-04-14T05:57:47.555Z,75.39
2023-04-14T05:58:44.291Z,75.13
2023-04-14T05:59:41.988Z,75.46
2023-04-14T06:00:38.766Z,76.21
2023-04-14T06:01:35.645Z,75.89
2023-04-14T06:02:32.660Z,75.51
2023-04-14T06:03:30.440Z,75.64
2023-04-14T06:04:27.563Z,76.23
2023-04-14T06:05:25.267Z,77.80
2023-04-14T06:06:22.139Z,77.24
2023-04-14T06:07:18.885Z,76.90
2023-04-14T06:08:15.722Z,77.65
2023-04-14T06:09:12.551Z,77.73
2023-04-14T06:10:10.498Z,77.46
2023-04-14T06:11:07.241Z,78.66
2023-04-14T06:12:04.023Z,78.95
2023-04-14T06:13:01.215Z,79.34
2023-04-14T06:13:58.922Z,79.35
2023-04-14T06:14:56.115Z,79.91
2023-04-14T06:15:52.867Z,78.69
2023-04-14T06:16:51.159Z,77.60
2023-04-14T06:17:48.446Z,75.98
2023-04-14T06:18:45.321Z,75.87
2023-04-14T06:19:42.289Z,73.95
2023-04-14T06:20:39.246Z,73.12
2023-04-14T06:21:36.007Z,72.25
2023-04-14T06:22:32.812Z,72.48
2023-04-14T06:23:31.441Z,71.89
2023-04-14T06:24:28.259Z,72.39
2023-04-14T06:25:24.988Z,72.21
2023-04-14T06:26:22.411Z,71.74
2023-04-14T06:27:19.257Z,71.26
2023-04-14T06:28:16.089Z,72.52
2023-04-14T06:29:13.226Z,72.88
2023-04-14T06:30:10.363Z,72.04
2023-04-14T06:31:07.265Z,71.44
2023-04-14T06:32:04.146Z,70.71
2023-04-14T06:33:04.902Z,68.77
2023-04-14T06:34:01.857Z,68.31
2023-04-14T06:34:59.123Z,68.33
2023-04-14T06:35:56.134Z,68.62
2023-04-14T06:36:53.140Z,69.72
2023-04-14T06:37:50.906Z,68.76
2023-04-14T06:38:47.742Z,68.32
2023-04-14T06:39:44.477Z,68.33
2023-04-14T06:40:41.214Z,68.54
2023-04-14T06:41:37.944Z,67.33
2023-04-14T06:42:34.676Z,67.66
2023-04-14T06:43:31.375Z,67.83
2023-04-14T06:44:28.127Z,66.94
2023-04-14T06:45:24.936Z,65.41
2023-04-14T06:46:21.873Z,64.71
2023-04-14T06:47:19.890Z,64.98
2023-04-14T06:48:16.637Z,65.20
2023-04-14T06:49:13.417Z,64.71
2023-04-14T06:50:10.564Z,64.58
2023-04-14T06:51:10.684Z,64.48
2023-04-14T06:52:07.610Z,65.30
2023-04-14T06:53:06.326Z,64.74
2023-04-14T06:54:03.578Z,64.66
2023-04-14T06:55:00.754Z,64.16
2023-04-14T06:56:00.628Z,63.90
2023-04-14T06:56:58.930Z,64.80
2023-04-14T06:57:56.738Z,67.28
2023-04-14T06:58:53.542Z,70.76
2023-04-14T06:59:50.834Z,76.61
2023-04-14T07:00:47.620Z,76.49
2023-04-14T07:01:44.601Z,73.05
2023-04-14T07:02:41.526Z,71.29
2023-04-14T07:03:38.680Z,70.89
2023-04-14T07:04:37.544Z,68.31
2023-04-14T07:05:34.568Z,66.78
2023-04-14T07:06:31.651Z,65.52
2023-04-14T07:07:28.556Z,64.25
2023-04-14T07:08:25.897Z,63.82
2023-04-14T07:09:24.229Z,63.42
2023-04-14T07:10:21.067Z,63.44
2023-04-14T07:11:17.796Z,63.13
2023-04-14T07:12:16.014Z,64.21
2023-04-14T07:13:12.989Z,64.09
2023-04-14T07:14:09.731Z,64.37
2023-04-14T07:15:07.243Z,64.25
2023-04-14T07:16:06.520Z,63.63
2023-04-14T07:17:03.348Z,62.60
2023-04-14T07:18:00.287Z,62.43
2023-04-14T07:18:57.081Z,63.12
2023-04-14T07:19:53.914Z,63.27
2023-04-14T07:20:54.533Z,64.00
2023-04-14T07:21:51.302Z,63.28
2023-04-14T07:22:48.074Z,62.39
2023-04-14T07:23:44.841Z,63.41
2023-04-14T07:24:41.631Z,62.70
2023-04-14T07:25:38.358Z,63.08
2023-04-14T07:26:35.090Z,62.22
2023-04-14T07:27:32.009Z,62.45
2023-04-14T07:28:28.885Z,61.03
2023-04-14T07:29:27.324Z,61.96
2023-04-14T07:30:24.189Z,61.16
2023-04-14T07:31:21.209Z,61.55
2023-04-14T07:32:18.426Z,62.61
2023-04-14T07:33:19.295Z,60.70
2023-04-14T07:34:16.333Z,60.53
2023-04-14T07:35:13.989Z,60.21
2023-04-14T07:36:10.964Z,59.28
2023-04-14T07:37:07.742Z,60.71
2023-04-14T07:38:04.685Z,60.95
2023-04-14T07:39:01.652Z,59.45
2023-04-14T07:39:58.988Z,59.86
2023-04-14T07:40:55.769Z,58.96
2023-04-14T07:41:52.649Z,58.10
2023-04-14T07:42:49.465Z,56.87
2023-04-14T07:43:46.534Z,56.95
2023-04-14T07:44:43.264Z,57.31
2023-04-14T07:45:40.086Z,57.44
2023-04-14T07:46:36.941Z,56.25
2023-04-14T07:47:34.010Z,56.44
2023-04-14T07:48:31.957Z,57.24
2023-04-14T07:49:28.800Z,55.87
2023-04-14T07:50:26.028Z,55.83
2023-04-14T07:51:22.846Z,56.21
2023-04-14T07:52:19.674Z,55.98
2023-04-14T07:53:16.468Z,54.89
2023-04-14T07:54:13.325Z,54.70
2023-04-14T07:55:10.190Z,53.94
2023-04-14T07:56:07.098Z,54.67
2023-04-14T07:57:03.889Z,54.38
2023-04-14T07:58:00.588Z,54.69
2023-04-14T07:58:57.737Z,54.17
2023-04-14T07:59:54.517Z,53.71
2023-04-14T08:00:51.563Z,53.29
2023-04-14T08:01:48.711Z,53.70
2023-04-14T08:02:45.637Z,52.68
2023-04-14T08:03:44.728Z,52.02
2023-04-14T08:04:43.204Z,51.77
2023-04-14T08:05:40.301Z,51.97
2023-04-14T08:06:37.282Z,52.38
2023-04-14T08:07:34.067Z,52.00
2023-04-14T08:08:30.881Z,52.08
2023-04-14T08:09:27.629Z,51.67
2023-04-14T08:10:24.560Z,51.54
2023-04-14T08:11:21.491Z,51.25
2023-04-14T08:12:18.221Z,50.85
2023-04-14T08:13:15.045Z,50.99
2023-04-14T08:14:11.843Z,50.65
2023-04-14T08:15:09.742Z,50.41
2023-04-14T08:16:06.793Z,50.95
2023-04-14T08:17:03.717Z,50.55
2023-04-14T08:18:00.519Z,50.03
2023-04-14T08:19:00.212Z,50.12
2023-04-14T08:19:57.381Z,49.53
2023-04-14T08:20:54.196Z,49.97
2023-04-14T08:21:52.150Z,49.89
2023-04-14T08:22:48.990Z,49.65
2023-04-14T08:23:46.116Z,49.75
2023-04-14T08:24:42.847Z,50.44
2023-04-14T08:25:39.668Z,49.26
2023-04-14T08:26:36.386Z,48.79
2023-04-14T08:27:33.140Z,49.07
2023-04-14T08:28:30.397Z,49.06
2023-04-14T08:29:27.307Z,48.42
2023-04-14T08:30:24.336Z,48.03
2023-04-14T08:31:25.245Z,48.21
2023-04-14T08:32:22.370Z,48.42
2023-04-14T08:33:19.197Z,47.24
2023-04-14T08:34:21.185Z,47.44
2023-04-14T08:35:35.270Z,47.76
2023-04-14T08:36:33.528Z,47.27
2023-04-14T08:37:30.448Z,46.79
2023-04-14T08:38:28.143Z,46.41
2023-04-14T08:39:25.010Z,46.18
2023-04-14T08:40:23.332Z,46.26
2023-04-14T08:41:22.888Z,45.42
2023-04-14T08:42:21.543Z,46.37
2023-04-14T08:43:18.761Z,47.26
2023-04-14T08:44:15.683Z,45.73
2023-04-14T08:45:14.992Z,45.76
2023-04-14T08:46:14.159Z,44.87
2023-04-14T08:47:11.533Z,45.02
2023-04-14T08:48:09.663Z,44.88
2023-04-14T08:49:12.350Z,43.83
2023-04-14T08:50:22.403Z,43.58
2023-04-14T08:51:22.251Z,43.28
2023-04-14T08:52:23.365Z,43.23
2023-04-14T08:53:23.669Z,43.61
2023-04-14T08:54:21.667Z,43.74
2023-04-14T08:55:19.308Z,43.18
2023-04-14T08:56:18.719Z,42.33
2023-04-14T08:57:20.146Z,41.63
2023-04-14T08:58:17.261Z,40.49
2023-04-14T08:59:14.274Z,41.37
2023-04-14T09:00:11.684Z,39.70
2023-04-14T09:01:09.645Z,38.69
2023-04-14T09:02:07.175Z,39.08
2023-04-14T09:03:05.000Z,39.20
2023-04-14T09:04:04.788Z,39.16
2023-04-14T09:05:02.425Z,38.61
2023-04-14T09:06:00.166Z,39.54
2023-04-14T09:07:00.629Z,39.41
2023-04-14T09:07:58.112Z,38.60
2023-04-14T09:08:55.332Z,39.05
2023-04-14T09:09:53.001Z,38.43
2023-04-14T09:10:51.259Z,39.20
2023-04-14T09:11:48.568Z,39.19
2023-04-14T09:12:45.692Z,38.53
2023-04-14T09:13:44.841Z,38.87
2023-04-14T09:14:46.515Z,38.83
2023-04-14T09:15:44.046Z,38.48
2023-04-14T09:16:41.166Z,38.31
2023-04-14T09:17:37.922Z,38.76
2023-04-14T09:18:36.544Z,38.97
2023-04-14T09:19:35.248Z,38.80
2023-04-14T09:20:35.322Z,39.03
2023-04-14T09:21:53.830Z,38.66
2023-04-14T09:22:52.850Z,37.94
2023-04-14T09:23:49.957Z,37.60
2023-04-14T09:24:48.438Z,38.82
2023-04-14T09:25:45.315Z,37.31
2023-04-14T09:26:42.786Z,38.20
2023-04-14T09:27:40.387Z,37.49
2023-04-14T09:28:37.946Z,37.82
2023-04-14T09:29:34.832Z,37.81
2023-04-14T09:30:32.335Z,37.90
2023-04-14T09:31:29.892Z,38.57
2023-04-14T09:32:26.751Z,38.05
2023-04-14T09:33:23.989Z,38.17
2023-04-14T09:34:21.575Z,38.33
2023-04-14T09:35:18.415Z,38.53
2023-04-14T09:36:20.630Z,39.27
2023-04-14T09:37:17.673Z,39.18
2023-04-14T09:38:15.224Z,38.41
2023-04-14T09:39:18.096Z,38.52
2023-04-14T09:40:35.174Z,39.07
2023-04-14T09:41:32.608Z,38.58
2023-04-14T09:42:40.609Z,39.15
2023-04-14T09:43:37.366Z,38.68
2023-04-14T09:44:34.083Z,38.44
2023-04-14T09:45:45.799Z,38.02
2023-04-14T09:47:02.292Z,37.88
2023-04-14T09:48:08.770Z,38.08
2023-04-14T09:49:07.052Z,39.46
2023-04-14T09:50:04.489Z,39.22
2023-04-14T09:51:06.671Z,38.22
2023-04-14T09:52:07.464Z,37.82
2023-04-14T09:53:04.480Z,37.69
2023-04-14T09:54:03.691Z,37.88
2023-04-14T09:55:00.766Z,38.30
2023-04-14T09:56:00.055Z,38.50
2023-04-14T09:56:59.844Z,38.17
2023-04-14T09:57:56.840Z,37.46
2023-04-14T09:59:01.039Z,37.84
2023-04-14T09:59:58.073Z,38.06
2023-04-14T10:00:55.965Z,37.62
2023-04-14T10:01:52.882Z,38.20
2023-04-14T10:02:52.291Z,37.43
2023-04-14T10:03:50.734Z,37.77
2023-04-14T10:05:05.043Z,37.55
2023-04-14T10:06:04.838Z,37.37
2023-04-14T10:07:01.987Z,37.27
2023-04-14T10:08:05.956Z,38.15
2023-04-14T10:09:02.934Z,38.64
2023-04-14T10:10:07.721Z,38.24
2023-04-14T10:11:25.964Z,38.24
2023-04-14T10:12:22.802Z,38.17
2023-04-14T10:13:20.076Z,38.84
2023-04-14T10:14:18.012Z,38.39
2023-04-14T10:15:15.565Z,40.00
2023-04-14T10:16:12.542Z,37.98
2023-04-14T10:17:10.464Z,38.23
2023-04-14T10:18:07.425Z,39.14
2023-04-14T10:19:04.519Z,39.50
2023-04-14T10:20:01.501Z,39.75
2023-04-14T10:21:01.435Z,38.72
2023-04-14T10:21:59.453Z,39.41
2023-04-14T10:22:57.034Z,39.02
2023-04-14T10:23:57.043Z,38.64
2023-04-14T10:24:54.214Z,39.30
2023-04-14T10:25:52.225Z,39.88
2023-04-14T10:26:49.711Z,40.05
2023-04-14T10:27:47.432Z,40.87
2023-04-14T10:28:45.871Z,40.89
2023-04-14T10:29:42.715Z,41.91
2023-04-14T10:30:41.184Z,41.97
2023-04-14T10:31:42.728Z,43.34
2023-04-14T10:32:42.840Z,43.88
2023-04-14T10:33:40.480Z,45.47
2023-04-14T10:34:42.034Z,46.66
2023-04-14T10:35:46.572Z,48.84
2023-04-14T10:36:44.381Z,50.82
2023-04-14T10:37:50.387Z,52.80
2023-04-14T10:38:47.274Z,54.93
2023-04-14T10:39:53.236Z,57.29
2023-04-14T10:40:52.643Z,59.16
2023-04-14T10:41:52.482Z,60.82
2023-04-14T10:42:56.617Z,60.87
2023-04-14T10:43:53.585Z,60.50
2023-04-14T10:45:12.744Z,62.17
2023-04-14T10:46:10.223Z,63.20
2023-04-14T10:47:10.877Z,63.65
2023-04-14T10:48:11.681Z,64.62
2023-04-14T10:49:12.257Z,65.45
2023-04-14T10:50:13.580Z,66.98
2023-04-14T10:51:10.715Z,67.31
2023-04-14T10:52:27.764Z,68.65
2023-04-14T10:53:25.578Z,68.64
2023-04-14T10:54:22.319Z,69.21
2023-04-14T10:55:22.749Z,69.84
2023-04-14T10:56:25.043Z,69.23
2023-04-14T10:57:26.777Z,69.40
2023-04-14T10:58:29.324Z,68.35
2023-04-14T10:59:28.999Z,66.47
2023-04-14T11:00:29.008Z,66.40
2023-04-14T11:01:30.989Z,66.70
2023-04-14T11:02:33.263Z,66.82
2023-04-14T11:03:44.904Z,66.58
2023-04-14T11:05:11.610Z,67.45
2023-04-14T11:06:12.612Z,67.79
2023-04-14T11:07:09.573Z,67.55
2023-04-14T11:08:14.789Z,68.30
2023-04-14T11:09:25.199Z,67.71
2023-04-14T11:10:24.829Z,67.84
2023-04-14T11:11:28.252Z,67.62
2023-04-14T11:12:31.482Z,67.76
2023-04-14T11:13:30.885Z,68.19
2023-04-14T11:14:30.647Z,68.61
2023-04-14T11:15:49.435Z,68.51
2023-04-14T11:16:58.818Z,68.30
2023-04-14T11:18:12.115Z,68.57
2023-04-14T11:19:15.501Z,70.23
2023-04-14T11:20:16.484Z,70.11
2023-04-14T11:21:16.229Z,69.84
2023-04-14T11:22:13.185Z,70.59
2023-04-14T11:23:12.708Z,70.66
2023-04-14T11:24:10.668Z,70.54
2023-04-14T11:25:11.017Z,69.24
2023-04-14T11:26:13.989Z,68.21
2023-04-14T11:27:11.796Z,66.70
2023-04-14T11:28:08.892Z,66.59
2023-04-14T11:29:11.898Z,66.45
2023-04-14T11:30:14.298Z,65.51
2023-04-14T11:31:13.249Z,66.26
2023-04-14T11:32:10.120Z,65.15
2023-04-14T11:33:07.364Z,65.87
2023-04-14T11:34:08.143Z,66.52
2023-04-14T11:35:07.899Z,67.46
2023-04-14T11:36:07.340Z,68.95
2023-04-14T11:37:04.981Z,69.59
2023-04-14T11:38:01.978Z,70.62
2023-04-14T11:39:04.191Z,69.99
2023-04-14T11:40:00.994Z,71.76
2023-04-14T11:40:58.345Z,71.28
2023-04-14T11:41:56.969Z,73.51
2023-04-14T11:42:58.416Z,72.41
2023-04-14T11:43:55.813Z,73.24
2023-04-14T11:45:00.217Z,72.11
2023-04-14T11:46:03.861Z,72.74
2023-04-14T11:47:01.589Z,72.91
2023-04-14T11:48:07.204Z,73.79
2023-04-14T11:49:04.558Z,75.55
2023-04-14T11:50:02.756Z,75.70
2023-04-14T11:51:03.736Z,75.73
2023-04-14T11:52:08.064Z,72.38
2023-04-14T11:53:12.891Z,73.40
2023-04-14T11:54:12.968Z,73.00
2023-04-14T11:55:09.887Z,73.42
2023-04-14T11:56:08.811Z,75.69
2023-04-14T11:57:13.100Z,77.77
2023-04-14T11:58:10.721Z,78.84
2023-04-14T11:59:07.535Z,81.95
2023-04-14T12:00:06.094Z,82.66
2023-04-14T12:01:02.866Z,85.85
2023-04-14T12:02:00.164Z,86.36
2023-04-14T12:02:57.589Z,88.78
2023-04-14T12:03:54.831Z,92.16
2023-04-14T12:04:52.157Z,95.14
2023-04-14T12:05:49.311Z,95.64
2023-04-14T12:06:46.980Z,98.81
2023-04-14T12:07:45.601Z,100.00
2023-04-14T12:08:42.680Z,100.00
2023-04-14T12:09:47.365Z,100.00
2023-04-14T12:10:46.069Z,100.00
2023-04-14T12:11:55.709Z,100.00
2023-04-14T12:13:02.169Z,100.00
2023-04-14T12:13:59.300Z,100.00
2023-04-14T12:14:56.130Z,100.00
2023-04-14T12:15:54.431Z,100.00
2023-04-14T12:16:51.795Z,100.00
2023-04-14T12:17:48.739Z,100.00
2023-04-14T12:18:46.268Z,100.00
2023-04-14T12:19:44.606Z,100.00
2023-04-14T12:20:53.596Z,100.00
2023-04-14T12:21:53.716Z,100.00
2023-04-14T12:22:51.811Z,100.00
2023-04-14T12:23:49.230Z,100.00
2023-04-14T12:24:46.292Z,100.00
2023-04-14T12:25:43.396Z,100.00
2023-04-14T12:26:41.244Z,100.00
2023-04-14T12:27:38.536Z,100.00
2023-04-14T12:28:37.185Z,100.00
2023-04-14T12:29:34.813Z,100.00
2023-04-14T12:30:34.848Z,100.00
2023-04-14T12:31:31.783Z,100.00
2023-04-14T12:32:39.529Z,100.00
2023-04-14T12:33:36.567Z,100.00
2023-04-14T12:34:33.305Z,100.00
2023-04-14T12:35:37.698Z,100.00
2023-04-14T12:36:49.502Z,100.00
2023-04-14T12:37:51.707Z,100.00
2023-04-14T12:38:48.546Z,100.00
2023-04-14T12:39:50.924Z,100.00
2023-04-14T12:40:48.537Z,100.00
2023-04-14T12:41:45.669Z,100.00
2023-04-14T12:42:47.784Z,100.00
2023-04-14T12:43:44.764Z,100.00
2023-04-14T12:44:42.533Z,100.00
2023-04-14T12:45:44.509Z,100.00